Cacouna, Canada
Current Conditions -  °F | °C
As of 9:53 AM on Tuesday 21 Oct 2014 (Local Time) from KFVE Reporting Station
Clear Clear  
Wind Chill: 33°   Ceiling: Unl
Heat Index: 37°   Visibility: 10mi
Dew Point: 26°   Wind: 5mph
Humidity: 65%   Direction: 320°NW
Pressure: 30.09"   Gusts: NA
Location:  47.91°N, 69.51°W
Report Text: KFVE 211353Z AUTO 32004KT 10SM CLR 03/M03 A3009 RMK AO2 SLP198 T00281033
Loading
Personal Weather Stations






























Interactive Weather Map
Tropical Storm Tracking
New forecast layout! Learn more

10-Day Weather Forecast

Advertisements
Track Severe Weather on mobile